sensor_id;sensor_type;location;lat;lon;timestamp;pressure;altitude;pressure_sealevel;temperature;humidity
37170;BME280;23062;13.952;100.608;2023-02-15T00:01:07;1011.47;;;30.91;66.21
37170;BME280;23062;13.952;100.608;2023-02-15T00:05:33;1011.53;;;30.90;66.28
37170;BME280;23062;13.952;100.608;2023-02-15T00:10:04;1011.62;;;30.88;65.88
37170;BME280;23062;13.952;100.608;2023-02-15T00:14:32;1011.60;;;30.75;65.45
37170;BME280;23062;13.952;100.608;2023-02-15T00:19:05;1011.71;;;30.69;65.44
37170;BME280;23062;13.952;100.608;2023-02-15T00:23:31;1011.76;;;30.73;65.51
37170;BME280;23062;13.952;100.608;2023-02-15T00:27:56;1011.88;;;30.74;65.40
37170;BME280;23062;13.952;100.608;2023-02-15T00:32:21;1011.94;;;30.73;65.01
37170;BME280;23062;13.952;100.608;2023-02-15T00:36:47;1012.13;;;30.61;64.06
37170;BME280;23062;13.952;100.608;2023-02-15T00:41:19;1012.31;;;30.49;63.26
37170;BME280;23062;13.952;100.608;2023-02-15T00:45:46;1012.53;;;30.51;63.83
37170;BME280;23062;13.952;100.608;2023-02-15T00:50:12;1012.53;;;30.51;63.64
37170;BME280;23062;13.952;100.608;2023-02-15T00:54:37;1012.61;;;30.47;63.52
37170;BME280;23062;13.952;100.608;2023-02-15T00:59:05;1012.99;;;30.42;63.18
37170;BME280;23062;13.952;100.608;2023-02-15T01:03:34;1013.09;;;30.33;62.36
37170;BME280;23062;13.952;100.608;2023-02-15T01:07:59;1013.09;;;30.31;61.83
37170;BME280;23062;13.952;100.608;2023-02-15T01:12:32;1013.13;;;30.28;61.02
37170;BME280;23062;13.952;100.608;2023-02-15T01:16:58;1013.27;;;30.26;61.44
37170;BME280;23062;13.952;100.608;2023-02-15T01:21:24;1013.40;;;29.89;62.20
37170;BME280;23062;13.952;100.608;2023-02-15T01:25:53;1013.46;;;29.47;63.76
37170;BME280;23062;13.952;100.608;2023-02-15T01:30:19;1013.45;;;29.24;64.71
37170;BME280;23062;13.952;100.608;2023-02-15T01:34:44;1013.59;;;29.61;64.17
37170;BME280;23062;13.952;100.608;2023-02-15T01:39:13;1013.77;;;29.79;63.68
37170;BME280;23062;13.952;100.608;2023-02-15T01:43:47;1013.75;;;29.81;63.79
37170;BME280;23062;13.952;100.608;2023-02-15T01:48:20;1013.88;;;29.85;63.78
37170;BME280;23062;13.952;100.608;2023-02-15T01:52:55;1013.96;;;29.94;63.89
37170;BME280;23062;13.952;100.608;2023-02-15T01:57:21;1014.05;;;29.91;63.68
37170;BME280;23062;13.952;100.608;2023-02-15T02:01:48;1014.10;;;29.86;63.84
37170;BME280;23062;13.952;100.608;2023-02-15T02:06:20;1014.10;;;29.89;63.69
37170;BME280;23062;13.952;100.608;2023-02-15T02:10:46;1014.19;;;29.85;63.18
37170;BME280;23062;13.952;100.608;2023-02-15T02:15:13;1014.30;;;29.96;63.40
37170;BME280;23062;13.952;100.608;2023-02-15T02:24:55;1014.18;;;29.99;63.27
37170;BME280;23062;13.952;100.608;2023-02-15T02:29:29;1014.24;;;29.97;63.12
37170;BME280;23062;13.952;100.608;2023-02-15T02:34:04;1014.33;;;29.97;63.37
37170;BME280;23062;13.952;100.608;2023-02-15T02:38:42;1014.36;;;29.94;63.25
37170;BME280;23062;13.952;100.608;2023-02-15T02:43:08;1014.47;;;30.00;63.53
37170;BME280;23062;13.952;100.608;2023-02-15T02:47:54;1014.65;;;30.00;63.99
37170;BME280;23062;13.952;100.608;2023-02-15T02:52:43;1014.76;;;29.98;64.10
37170;BME280;23062;13.952;100.608;2023-02-15T02:57:10;1014.77;;;29.94;63.91
37170;BME280;23062;13.952;100.608;2023-02-15T03:01:39;1014.73;;;29.97;63.98
37170;BME280;23062;13.952;100.608;2023-02-15T03:06:16;1014.79;;;29.98;63.96
37170;BME280;23062;13.952;100.608;2023-02-15T03:10:41;1014.86;;;30.00;64.02
37170;BME280;23062;13.952;100.608;2023-02-15T03:15:11;1014.99;;;29.97;64.77
37170;BME280;23062;13.952;100.608;2023-02-15T03:19:39;1015.02;;;29.98;64.65
37170;BME280;23062;13.952;100.608;2023-02-15T03:24:14;1014.96;;;29.98;64.96
37170;BME280;23062;13.952;100.608;2023-02-15T03:28:41;1014.88;;;29.96;65.05
37170;BME280;23062;13.952;100.608;2023-02-15T03:33:05;1014.73;;;29.94;65.22
37170;BME280;23062;13.952;100.608;2023-02-15T03:37:41;1014.66;;;29.88;65.18
37170;BME280;23062;13.952;100.608;2023-02-15T03:42:13;1014.69;;;29.83;65.19
37170;BME280;23062;13.952;100.608;2023-02-15T03:46:52;1014.60;;;29.88;65.49
37170;BME280;23062;13.952;100.608;2023-02-15T03:51:22;1014.53;;;29.89;65.46
37170;BME280;23062;13.952;100.608;2023-02-15T03:56:00;1014.58;;;29.80;65.66
37170;BME280;23062;13.952;100.608;2023-02-15T04:00:26;1014.56;;;29.76;65.84
37170;BME280;23062;13.952;100.608;2023-02-15T04:05:13;1014.48;;;29.69;65.41
37170;BME280;23062;13.952;100.608;2023-02-15T04:09:38;1014.42;;;29.68;66.05
37170;BME280;23062;13.952;100.608;2023-02-15T04:14:21;1014.32;;;29.65;66.20
37170;BME280;23062;13.952;100.608;2023-02-15T04:19:04;1014.39;;;29.71;66.26
37170;BME280;23062;13.952;100.608;2023-02-15T04:23:47;1014.28;;;29.67;66.36
37170;BME280;23062;13.952;100.608;2023-02-15T04:28:32;1014.24;;;29.70;66.00
37170;BME280;23062;13.952;100.608;2023-02-15T04:32:57;1014.07;;;29.72;66.41
37170;BME280;23062;13.952;100.608;2023-02-15T04:37:23;1014.02;;;29.71;66.02
37170;BME280;23062;13.952;100.608;2023-02-15T04:41:48;1013.93;;;29.62;65.85
37170;BME280;23062;13.952;100.608;2023-02-15T04:46:14;1013.93;;;29.66;66.08
37170;BME280;23062;13.952;100.608;2023-02-15T04:50:39;1013.93;;;29.44;65.86
37170;BME280;23062;13.952;100.608;2023-02-15T04:55:05;1013.89;;;29.41;66.05
37170;BME280;23062;13.952;100.608;2023-02-15T04:59:32;1013.95;;;29.41;66.48
37170;BME280;23062;13.952;100.608;2023-02-15T05:03:57;1013.91;;;29.53;66.58
37170;BME280;23062;13.952;100.608;2023-02-15T05:08:23;1013.99;;;29.47;66.14
37170;BME280;23062;13.952;100.608;2023-02-15T05:12:47;1013.89;;;29.42;66.37
37170;BME280;23062;13.952;100.608;2023-02-15T05:17:13;1013.83;;;29.42;66.83
37170;BME280;23062;13.952;100.608;2023-02-15T05:21:40;1013.76;;;29.37;66.96
37170;BME280;23062;13.952;100.608;2023-02-15T05:26:07;1013.71;;;29.05;67.47
37170;BME280;23062;13.952;100.608;2023-02-15T05:31:01;1013.63;;;29.16;67.76
37170;BME280;23062;13.952;100.608;2023-02-15T05:35:26;1013.66;;;29.29;67.60
37170;BME280;23062;13.952;100.608;2023-02-15T05:39:52;1013.58;;;28.96;68.15
37170;BME280;23062;13.952;100.608;2023-02-15T05:44:24;1013.49;;;29.06;68.49
37170;BME280;23062;13.952;100.608;2023-02-15T05:48:49;1013.42;;;29.13;68.36
37170;BME280;23062;13.952;100.608;2023-02-15T05:53:15;1013.31;;;29.23;68.00
37170;BME280;23062;13.952;100.608;2023-02-15T05:57:40;1013.20;;;29.06;68.43
37170;BME280;23062;13.952;100.608;2023-02-15T06:02:06;1013.04;;;29.19;68.43
37170;BME280;23062;13.952;100.608;2023-02-15T06:06:34;1012.92;;;29.17;68.29
37170;BME280;23062;13.952;100.608;2023-02-15T06:11:01;1012.80;;;29.20;68.47
37170;BME280;23062;13.952;100.608;2023-02-15T06:15:26;1012.76;;;29.30;68.63
37170;BME280;23062;13.952;100.608;2023-02-15T06:19:52;1012.72;;;29.34;68.21
37170;BME280;23062;13.952;100.608;2023-02-15T06:24:20;1012.60;;;29.41;68.44
37170;BME280;23062;13.952;100.608;2023-02-15T06:28:45;1012.58;;;29.53;68.15
37170;BME280;23062;13.952;100.608;2023-02-15T06:33:11;1012.51;;;29.61;68.27
37170;BME280;23062;13.952;100.608;2023-02-15T06:37:37;1012.34;;;29.59;68.09
37170;BME280;23062;13.952;100.608;2023-02-15T06:42:03;1012.24;;;29.58;67.35
37170;BME280;23062;13.952;100.608;2023-02-15T06:46:29;1012.14;;;29.64;67.30
37170;BME280;23062;13.952;100.608;2023-02-15T06:50:58;1012.15;;;29.61;67.13
37170;BME280;23062;13.952;100.608;2023-02-15T06:55:23;1012.14;;;29.63;67.15
37170;BME280;23062;13.952;100.608;2023-02-15T06:59:49;1012.12;;;29.68;68.09
37170;BME280;23062;13.952;100.608;2023-02-15T07:04:17;1012.12;;;29.76;68.36
37170;BME280;23062;13.952;100.608;2023-02-15T07:08:43;1012.08;;;29.78;68.65
37170;BME280;23062;13.952;100.608;2023-02-15T07:13:08;1011.98;;;29.81;68.22
37170;BME280;23062;13.952;100.608;2023-02-15T07:17:38;1011.88;;;29.75;67.96
37170;BME280;23062;13.952;100.608;2023-02-15T07:22:03;1011.71;;;29.79;68.63
37170;BME280;23062;13.952;100.608;2023-02-15T07:26:30;1011.67;;;29.83;68.48
37170;BME280;23062;13.952;100.608;2023-02-15T07:31:00;1011.59;;;29.86;68.52
37170;BME280;23062;13.952;100.608;2023-02-15T07:35:25;1011.57;;;29.85;68.51
37170;BME280;23062;13.952;100.608;2023-02-15T07:39:50;1011.57;;;29.87;67.95
37170;BME280;23062;13.952;100.608;2023-02-15T07:44:16;1011.49;;;29.87;68.24
37170;BME280;23062;13.952;100.608;2023-02-15T07:48:42;1011.47;;;29.92;68.21
37170;BME280;23062;13.952;100.608;2023-02-15T07:53:11;1011.49;;;29.91;68.08
37170;BME280;23062;13.952;100.608;2023-02-15T07:57:36;1011.42;;;29.91;67.67
37170;BME280;23062;13.952;100.608;2023-02-15T08:02:02;1011.42;;;29.95;67.77
37170;BME280;23062;13.952;100.608;2023-02-15T08:06:29;1011.36;;;29.93;67.41
37170;BME280;23062;13.952;100.608;2023-02-15T08:10:59;1011.34;;;29.90;66.87
37170;BME280;23062;13.952;100.608;2023-02-15T08:15:53;1011.33;;;29.80;66.53
37170;BME280;23062;13.952;100.608;2023-02-15T08:20:18;1011.30;;;29.90;66.74
37170;BME280;23062;13.952;100.608;2023-02-15T08:24:44;1011.27;;;29.80;66.04
37170;BME280;23062;13.952;100.608;2023-02-15T08:29:10;1011.23;;;29.80;66.25
37170;BME280;23062;13.952;100.608;2023-02-15T08:33:36;1011.20;;;29.89;66.03
37170;BME280;23062;13.952;100.608;2023-02-15T08:38:02;1011.13;;;29.92;65.68
37170;BME280;23062;13.952;100.608;2023-02-15T08:42:28;1011.06;;;29.93;66.12
37170;BME280;23062;13.952;100.608;2023-02-15T08:46:54;1011.11;;;29.94;65.31
37170;BME280;23062;13.952;100.608;2023-02-15T08:51:26;1011.12;;;29.88;64.93
37170;BME280;23062;13.952;100.608;2023-02-15T08:55:56;1011.16;;;29.82;64.77
37170;BME280;23062;13.952;100.608;2023-02-15T09:00:22;1011.20;;;29.88;64.65
37170;BME280;23062;13.952;100.608;2023-02-15T09:04:49;1011.28;;;29.91;64.74
37170;BME280;23062;13.952;100.608;2023-02-15T09:09:16;1011.24;;;29.92;64.57
37170;BME280;23062;13.952;100.608;2023-02-15T09:13:44;1011.28;;;29.94;64.83
37170;BME280;23062;13.952;100.608;2023-02-15T09:18:12;1011.34;;;29.98;64.96
37170;BME280;23062;13.952;100.608;2023-02-15T09:22:41;1011.44;;;29.92;65.48
37170;BME280;23062;13.952;100.608;2023-02-15T09:27:06;1011.51;;;29.90;65.64
37170;BME280;23062;13.952;100.608;2023-02-15T09:31:36;1011.57;;;29.92;65.38
37170;BME280;23062;13.952;100.608;2023-02-15T09:35:59;1011.61;;;29.98;65.23
37170;BME280;23062;13.952;100.608;2023-02-15T09:40:25;1011.66;;;30.00;65.15
37170;BME280;23062;13.952;100.608;2023-02-15T09:54:19;1011.76;;;29.91;65.76
37170;BME280;23062;13.952;100.608;2023-02-15T09:58:58;1011.75;;;30.03;65.80
37170;BME280;23062;13.952;100.608;2023-02-15T10:03:37;1011.79;;;30.06;66.27
37170;BME280;23062;13.952;100.608;2023-02-15T10:13:05;1011.89;;;30.05;65.87
37170;BME280;23062;13.952;100.608;2023-02-15T10:17:41;1011.89;;;30.05;66.22
37170;BME280;23062;13.952;100.608;2023-02-15T10:22:24;1011.88;;;30.04;66.07
37170;BME280;23062;13.952;100.608;2023-02-15T10:26:48;1011.93;;;30.05;65.67
37170;BME280;23062;13.952;100.608;2023-02-15T11:03:50;1011.95;;;30.07;65.81
37170;BME280;23062;13.952;100.608;2023-02-15T11:08:13;1011.99;;;30.03;66.21
37170;BME280;23062;13.952;100.608;2023-02-15T11:12:42;1012.01;;;30.05;66.21
37170;BME280;23062;13.952;100.608;2023-02-15T11:17:16;1011.99;;;30.05;66.81
37170;BME280;23062;13.952;100.608;2023-02-15T11:21:54;1012.02;;;30.03;67.05
37170;BME280;23062;13.952;100.608;2023-02-15T11:26:43;1012.08;;;30.04;67.20
37170;BME280;23062;13.952;100.608;2023-02-15T11:31:40;1012.15;;;30.05;67.21
37170;BME280;23062;13.952;100.608;2023-02-15T11:36:05;1012.18;;;30.02;67.16
37170;BME280;23062;13.952;100.608;2023-02-15T11:49:41;1012.32;;;29.85;67.95
37170;BME280;23062;13.952;100.608;2023-02-15T11:54:10;1012.35;;;29.84;67.80
37170;BME280;23062;13.952;100.608;2023-02-15T11:58:40;1012.31;;;29.87;67.72
37170;BME280;23062;13.952;100.608;2023-02-15T12:12:27;1012.42;;;29.75;68.27
37170;BME280;23062;13.952;100.608;2023-02-15T12:16:54;1012.44;;;29.68;68.30
37170;BME280;23062;13.952;100.608;2023-02-15T12:21:32;1012.51;;;29.67;68.55
37170;BME280;23062;13.952;100.608;2023-02-15T12:25:59;1012.51;;;29.67;68.47
37170;BME280;23062;13.952;100.608;2023-02-15T12:30:32;1012.57;;;29.67;68.47
37170;BME280;23062;13.952;100.608;2023-02-15T12:39:56;1012.64;;;29.73;68.44
37170;BME280;23062;13.952;100.608;2023-02-15T12:44:29;1012.72;;;29.76;68.42
37170;BME280;23062;13.952;100.608;2023-02-15T12:49:19;1012.82;;;29.70;68.49
37170;BME280;23062;13.952;100.608;2023-02-15T12:53:45;1012.92;;;29.80;68.13
37170;BME280;23062;13.952;100.608;2023-02-15T12:58:18;1012.95;;;29.81;67.93
37170;BME280;23062;13.952;100.608;2023-02-15T13:02:47;1013.00;;;29.84;67.94
37170;BME280;23062;13.952;100.608;2023-02-15T13:07:14;1012.97;;;29.85;67.79
37170;BME280;23062;13.952;100.608;2023-02-15T13:11:44;1013.00;;;29.97;67.50
37170;BME280;23062;13.952;100.608;2023-02-15T13:16:14;1013.08;;;30.07;67.01
37170;BME280;23062;13.952;100.608;2023-02-15T13:20:45;1013.17;;;30.12;67.08
37170;BME280;23062;13.952;100.608;2023-02-15T13:29:49;1013.33;;;30.14;67.36
37170;BME280;23062;13.952;100.608;2023-02-15T13:34:31;1013.40;;;30.15;67.76
37170;BME280;23062;13.952;100.608;2023-02-15T13:39:09;1013.45;;;30.16;67.79
37170;BME280;23062;13.952;100.608;2023-02-15T13:43:56;1013.49;;;30.16;68.00
37170;BME280;23062;13.952;100.608;2023-02-15T13:53:28;1013.60;;;30.17;68.15
37170;BME280;23062;13.952;100.608;2023-02-15T13:58:06;1013.72;;;30.16;68.15
37170;BME280;23062;13.952;100.608;2023-02-15T14:07:24;1013.79;;;30.15;68.07
37170;BME280;23062;13.952;100.608;2023-02-15T14:12:01;;;;30.15;68.02
37170;BME280;23062;13.952;100.608;2023-02-15T14:21:26;1014.10;;;30.14;68.03
37170;BME280;23062;13.952;100.608;2023-02-15T14:25:54;1014.16;;;30.14;68.04
37170;BME280;23062;13.952;100.608;2023-02-15T14:30:25;1014.21;;;30.12;68.02
37170;BME280;23062;13.952;100.608;2023-02-15T14:35:03;1014.23;;;30.11;68.01
37170;BME280;23062;13.952;100.608;2023-02-15T14:39:44;1014.29;;;30.11;67.96
37170;BME280;23062;13.952;100.608;2023-02-15T14:44:32;1014.36;;;30.12;67.87
37170;BME280;23062;13.952;100.608;2023-02-15T14:53:33;1014.38;;;30.10;67.88
37170;BME280;23062;13.952;100.608;2023-02-15T14:58:09;1014.38;;;30.08;67.84
37170;BME280;23062;13.952;100.608;2023-02-15T15:02:47;1014.39;;;30.08;67.85
37170;BME280;23062;13.952;100.608;2023-02-15T15:11:49;1014.35;;;30.08;67.79
37170;BME280;23062;13.952;100.608;2023-02-15T15:20:53;1014.28;;;30.06;67.70
37170;BME280;23062;13.952;100.608;2023-02-15T15:34:58;1014.33;;;30.05;67.62
37170;BME280;23062;13.952;100.608;2023-02-15T15:44:09;1014.42;;;30.04;67.53
37170;BME280;23062;13.952;100.608;2023-02-15T15:48:35;1014.36;;;30.02;67.51
37170;BME280;23062;13.952;100.608;2023-02-15T15:53:02;1014.35;;;30.03;67.47
37170;BME280;23062;13.952;100.608;2023-02-15T15:57:35;1014.42;;;30.02;67.47
37170;BME280;23062;13.952;100.608;2023-02-15T16:02:03;1014.36;;;30.01;67.43
37170;BME280;23062;13.952;100.608;2023-02-15T16:06:37;1014.29;;;30.00;67.38
37170;BME280;23062;13.952;100.608;2023-02-15T16:11:12;1014.31;;;30.00;67.32
37170;BME280;23062;13.952;100.608;2023-02-15T16:15:47;1014.24;;;30.00;67.28
37170;BME280;23062;13.952;100.608;2023-02-15T16:20:30;1014.21;;;29.99;67.25
37170;BME280;23062;13.952;100.608;2023-02-15T16:25:02;1014.22;;;29.99;67.22
37170;BME280;23062;13.952;100.608;2023-02-15T16:29:31;1014.24;;;29.98;67.21
37170;BME280;23062;13.952;100.608;2023-02-15T16:33:58;1014.22;;;29.97;67.19
37170;BME280;23062;13.952;100.608;2023-02-15T16:43:13;1014.31;;;29.97;67.11
37170;BME280;23062;13.952;100.608;2023-02-15T16:47:43;1014.26;;;29.95;67.10
37170;BME280;23062;13.952;100.608;2023-02-15T16:52:10;1014.24;;;29.95;67.08
37170;BME280;23062;13.952;100.608;2023-02-15T16:56:37;1014.19;;;29.94;67.05
37170;BME280;23062;13.952;100.608;2023-02-15T17:01:05;1014.14;;;29.95;67.04
37170;BME280;23062;13.952;100.608;2023-02-15T17:05:48;1014.13;;;29.93;67.01
37170;BME280;23062;13.952;100.608;2023-02-15T17:10:31;1014.08;;;29.93;67.01
37170;BME280;23062;13.952;100.608;2023-02-15T17:14:58;1014.05;;;29.92;66.92
37170;BME280;23062;13.952;100.608;2023-02-15T17:19:30;1014.02;;;29.92;66.93
37170;BME280;23062;13.952;100.608;2023-02-15T17:23:56;1014.02;;;29.91;66.87
37170;BME280;23062;13.952;100.608;2023-02-15T17:28:22;1013.97;;;29.90;66.89
37170;BME280;23062;13.952;100.608;2023-02-15T17:32:55;1013.98;;;29.90;66.82
37170;BME280;23062;13.952;100.608;2023-02-15T17:42:07;1013.84;;;29.88;66.79
37170;BME280;23062;13.952;100.608;2023-02-15T17:46:39;1013.75;;;29.87;66.77
37170;BME280;23062;13.952;100.608;2023-02-15T17:51:06;1013.74;;;29.86;66.77
37170;BME280;23062;13.952;100.608;2023-02-15T17:55:33;1013.69;;;29.86;66.76
37170;BME280;23062;13.952;100.608;2023-02-15T18:00:01;1013.70;;;29.86;66.70
37170;BME280;23062;13.952;100.608;2023-02-15T18:04:44;1013.63;;;29.85;66.66
37170;BME280;23062;13.952;100.608;2023-02-15T18:09:27;1013.70;;;29.85;66.62
37170;BME280;23062;13.952;100.608;2023-02-15T18:14:11;1013.61;;;29.80;66.75
37170;BME280;23062;13.952;100.608;2023-02-15T18:18:36;1013.58;;;29.76;67.03
37170;BME280;23062;13.952;100.608;2023-02-15T18:23:01;1013.53;;;29.73;66.87
37170;BME280;23062;13.952;100.608;2023-02-15T18:27:27;1013.52;;;29.74;66.73
37170;BME280;23062;13.952;100.608;2023-02-15T18:31:53;1013.50;;;29.75;66.67
37170;BME280;23062;13.952;100.608;2023-02-15T18:36:32;1013.46;;;29.77;66.61
37170;BME280;23062;13.952;100.608;2023-02-15T18:40:58;1013.37;;;29.78;66.51
37170;BME280;23062;13.952;100.608;2023-02-15T18:45:28;1013.40;;;29.78;66.49
37170;BME280;23062;13.952;100.608;2023-02-15T18:49:58;1013.33;;;29.78;66.43
37170;BME280;23062;13.952;100.608;2023-02-15T18:54:24;1013.31;;;29.75;66.39
37170;BME280;23062;13.952;100.608;2023-02-15T18:58:49;1013.25;;;29.74;66.44
37170;BME280;23062;13.952;100.608;2023-02-15T19:03:17;1013.19;;;29.75;66.42
37170;BME280;23062;13.952;100.608;2023-02-15T19:07:43;1013.22;;;29.73;66.41
37170;BME280;23062;13.952;100.608;2023-02-15T19:12:10;1013.22;;;29.74;66.36
37170;BME280;23062;13.952;100.608;2023-02-15T19:16:37;1013.15;;;29.73;66.34
37170;BME280;23062;13.952;100.608;2023-02-15T19:21:03;1013.08;;;29.73;66.37
37170;BME280;23062;13.952;100.608;2023-02-15T19:25:30;1013.10;;;29.73;66.33
37170;BME280;23062;13.952;100.608;2023-02-15T19:30:04;1013.05;;;29.72;66.33
37170;BME280;23062;13.952;100.608;2023-02-15T19:34:25;1013.02;;;29.71;66.33
37170;BME280;23062;13.952;100.608;2023-02-15T19:38:52;1013.01;;;29.71;66.34
37170;BME280;23062;13.952;100.608;2023-02-15T19:43:20;1013.02;;;29.71;66.34
37170;BME280;23062;13.952;100.608;2023-02-15T19:47:54;1012.97;;;29.71;66.35
37170;BME280;23062;13.952;100.608;2023-02-15T19:52:21;1013.19;;;29.70;66.36
37170;BME280;23062;13.952;100.608;2023-02-15T19:56:47;1013.23;;;29.69;66.32
37170;BME280;23062;13.952;100.608;2023-02-15T20:01:13;1013.15;;;29.68;66.31
37170;BME280;23062;13.952;100.608;2023-02-15T20:05:38;1013.02;;;29.66;66.18
37170;BME280;23062;13.952;100.608;2023-02-15T20:10:16;1012.98;;;29.63;65.92
37170;BME280;23062;13.952;100.608;2023-02-15T20:14:42;1012.99;;;29.63;65.09
37170;BME280;23062;13.952;100.608;2023-02-15T20:19:07;1012.91;;;29.45;61.01
37170;BME280;23062;13.952;100.608;2023-02-15T20:23:37;1012.92;;;29.28;60.40
37170;BME280;23062;13.952;100.608;2023-02-15T20:28:02;1012.84;;;29.24;60.50
37170;BME280;23062;13.952;100.608;2023-02-15T20:32:27;1012.70;;;29.21;60.30
37170;BME280;23062;13.952;100.608;2023-02-15T20:36:53;1012.62;;;29.02;60.76
37170;BME280;23062;13.952;100.608;2023-02-15T20:41:19;1012.63;;;28.70;60.76
37170;BME280;23062;13.952;100.608;2023-02-15T20:46:02;1012.58;;;28.62;61.60
37170;BME280;23062;13.952;100.608;2023-02-15T20:50:30;1012.46;;;28.69;61.60
37170;BME280;23062;13.952;100.608;2023-02-15T20:54:58;1012.36;;;28.64;62.08
37170;BME280;23062;13.952;100.608;2023-02-15T20:59:26;1012.37;;;28.49;62.26
37170;BME280;23062;13.952;100.608;2023-02-15T21:03:54;1012.40;;;28.56;62.42
37170;BME280;23062;13.952;100.608;2023-02-15T21:08:21;1012.37;;;28.54;62.92
37170;BME280;23062;13.952;100.608;2023-02-15T21:12:48;1012.35;;;28.53;63.54
37170;BME280;23062;13.952;100.608;2023-02-15T21:17:15;1012.39;;;28.43;63.49
37170;BME280;23062;13.952;100.608;2023-02-15T21:21:42;1012.33;;;28.34;63.02
37170;BME280;23062;13.952;100.608;2023-02-15T21:26:20;1012.42;;;28.37;62.94
37170;BME280;23062;13.952;100.608;2023-02-15T21:30:42;1012.39;;;28.49;62.98
37170;BME280;23062;13.952;100.608;2023-02-15T21:35:11;1012.41;;;28.45;63.37
37170;BME280;23062;13.952;100.608;2023-02-15T21:39:40;1012.48;;;28.37;64.13
37170;BME280;23062;13.952;100.608;2023-02-15T21:44:19;1012.58;;;28.42;63.74
37170;BME280;23062;13.952;100.608;2023-02-15T21:49:03;1012.50;;;28.41;63.77
37170;BME280;23062;13.952;100.608;2023-02-15T21:53:34;1012.57;;;28.43;63.81
37170;BME280;23062;13.952;100.608;2023-02-15T21:58:00;1012.53;;;28.37;63.45
37170;BME280;23062;13.952;100.608;2023-02-15T22:02:28;1012.55;;;28.31;64.41
37170;BME280;23062;13.952;100.608;2023-02-15T22:06:54;1012.56;;;28.34;64.36
37170;BME280;23062;13.952;100.608;2023-02-15T22:11:20;1012.58;;;28.33;64.49
37170;BME280;23062;13.952;100.608;2023-02-15T22:15:46;1012.61;;;28.29;64.72
37170;BME280;23062;13.952;100.608;2023-02-15T22:20:17;1012.64;;;28.35;65.11
37170;BME280;23062;13.952;100.608;2023-02-15T22:24:43;1012.55;;;28.56;63.82
37170;BME280;23062;13.952;100.608;2023-02-15T22:29:19;1012.68;;;28.70;63.43
37170;BME280;23062;13.952;100.608;2023-02-15T22:33:46;1012.67;;;28.71;63.00
37170;BME280;23062;13.952;100.608;2023-02-15T22:38:12;1012.78;;;28.79;62.67
37170;BME280;23062;13.952;100.608;2023-02-15T22:42:39;1012.87;;;28.85;62.51
37170;BME280;23062;13.952;100.608;2023-02-15T22:47:08;1012.94;;;28.86;62.56
37170;BME280;23062;13.952;100.608;2023-02-15T22:51:35;1013.05;;;28.82;62.82
37170;BME280;23062;13.952;100.608;2023-02-15T22:56:03;1013.16;;;28.81;62.37
37170;BME280;23062;13.952;100.608;2023-02-15T23:00:37;1013.17;;;28.81;62.68
37170;BME280;23062;13.952;100.608;2023-02-15T23:05:02;1013.22;;;28.80;62.58
37170;BME280;23062;13.952;100.608;2023-02-15T23:09:28;1013.25;;;28.80;62.75
37170;BME280;23062;13.952;100.608;2023-02-15T23:13:56;1013.28;;;28.81;62.97
37170;BME280;23062;13.952;100.608;2023-02-15T23:22:54;1013.39;;;28.80;62.95
37170;BME280;23062;13.952;100.608;2023-02-15T23:27:20;1013.40;;;28.80;62.84
37170;BME280;23062;13.952;100.608;2023-02-15T23:32:13;1013.51;;;28.82;63.05
37170;BME280;23062;13.952;100.608;2023-02-15T23:36:40;1013.55;;;28.81;62.91
37170;BME280;23062;13.952;100.608;2023-02-15T23:41:09;1013.65;;;28.82;63.07
37170;BME280;23062;13.952;100.608;2023-02-15T23:45:45;1013.74;;;28.80;62.74
37170;BME280;23062;13.952;100.608;2023-02-15T23:50:18;1013.87;;;28.81;63.16
37170;BME280;23062;13.952;100.608;2023-02-15T23:54:44;1013.97;;;28.83;63.28
37170;BME280;23062;13.952;100.608;2023-02-15T23:59:11;1014.05;;;28.74;63.76
